createdAt,value
2023-01-30T00:02:04.329Z,101635.28
2023-01-30T00:04:37.016Z,101630.47
2023-01-30T00:07:07.151Z,101620.78
2023-01-30T00:09:37.090Z,101597.94
2023-01-30T00:12:07.685Z,101599.59
2023-01-30T00:14:37.683Z,101601.78
2023-01-30T00:17:07.386Z,101601.50
2023-01-30T00:19:40.028Z,101595.88
2023-01-30T00:22:09.871Z,101591.38
2023-01-30T00:24:39.648Z,101592.75
2023-01-30T00:27:09.456Z,101572.81
2023-01-30T00:29:39.163Z,101571.81
2023-01-30T00:32:09.114Z,101561.84
2023-01-30T00:34:41.466Z,101537.94
2023-01-30T00:37:11.302Z,101543.31
2023-01-30T00:39:41.166Z,101529.59
2023-01-30T00:42:24.883Z,101531.53
2023-01-30T00:45:06.962Z,101520.78
2023-01-30T00:47:36.793Z,101520.25
2023-01-30T00:50:09.994Z,101524.06
2023-01-30T00:52:39.884Z,101528.09
2023-01-30T00:55:11.397Z,101508.22
2023-01-30T00:57:41.127Z,101518.69
2023-01-30T01:00:12.942Z,101512.81
2023-01-30T01:02:42.760Z,101507.44
2023-01-30T01:05:15.502Z,101504.75
2023-01-30T01:07:45.262Z,101506.91
2023-01-30T01:10:16.725Z,101503.97
2023-01-30T01:12:46.761Z,101508.84
2023-01-30T01:15:17.740Z,101500.50
2023-01-30T01:17:47.641Z,101495.13
2023-01-30T01:20:20.621Z,101491.91
2023-01-30T01:22:52.149Z,101487.59
2023-01-30T01:25:22.018Z,101493.50
2023-01-30T01:27:52.592Z,101491.38
2023-01-30T01:30:22.786Z,101489.53
2023-01-30T01:32:52.606Z,101494.09
2023-01-30T01:35:25.040Z,101478.50
2023-01-30T01:37:56.819Z,101486.56
2023-01-30T01:40:39.284Z,101482.81
2023-01-30T01:43:18.836Z,101488.19
2023-01-30T01:45:51.719Z,101482.31
2023-01-30T01:48:28.385Z,101469.41
2023-01-30T01:51:05.259Z,101457.84
2023-01-30T01:53:37.827Z,101458.91
2023-01-30T01:56:10.420Z,101457.34
2023-01-30T01:58:44.010Z,101452.72
2023-01-30T02:01:13.998Z,101447.91
2023-01-30T02:03:48.643Z,101439.06
2023-01-30T02:06:21.904Z,101429.13
2023-01-30T02:08:56.504Z,101414.59
2023-01-30T02:11:33.206Z,101420.28
2023-01-30T02:14:04.486Z,101421.09
2023-01-30T02:16:34.656Z,101396.84
2023-01-30T02:19:04.641Z,101409.53
2023-01-30T02:22:11.922Z,101393.38
2023-01-30T02:25:08.960Z,101388.28
2023-01-30T02:28:06.010Z,101386.09
2023-01-30T02:31:03.954Z,101376.97
2023-01-30T02:33:42.560Z,101365.13
2023-01-30T02:36:24.231Z,101360.84
2023-01-30T02:39:04.660Z,101368.94
2023-01-30T02:41:42.171Z,101363.56
2023-01-30T02:44:19.335Z,101363.25
2023-01-30T02:46:57.907Z,101364.06
2023-01-30T02:49:34.923Z,101359.78
2023-01-30T02:52:07.005Z,101357.91
2023-01-30T02:54:36.800Z,101363.31
2023-01-30T02:57:06.699Z,101353.63
2023-01-30T02:59:41.076Z,101350.38
2023-01-30T03:02:40.836Z,101349.81
2023-01-30T03:05:36.458Z,101343.91
2023-01-30T03:08:21.003Z,101339.06
2023-01-30T03:10:57.514Z,101335.06
2023-01-30T03:13:35.504Z,101330.19
2023-01-30T03:16:10.856Z,101333.44
2023-01-30T03:18:43.927Z,101328.31
2023-01-30T03:21:15.707Z,101327.53
2023-01-30T03:23:48.434Z,101319.97
2023-01-30T03:26:23.152Z,101305.97
2023-01-30T03:28:54.105Z,101307.03
2023-01-30T03:31:23.918Z,101291.44
2023-01-30T03:33:56.464Z,101301.66
2023-01-30T03:36:27.043Z,101296.56
2023-01-30T03:38:56.980Z,101304.91
2023-01-30T03:41:26.941Z,101299.78
2023-01-30T03:43:56.801Z,101299.53
2023-01-30T03:46:26.912Z,101294.16
2023-01-30T03:48:59.359Z,101290.38
2023-01-30T03:51:29.099Z,101292.56
2023-01-30T03:53:58.907Z,101282.81
2023-01-30T03:56:28.778Z,101281.22
2023-01-30T03:58:58.575Z,101282.31
2023-01-30T04:01:28.540Z,101273.66
2023-01-30T04:04:01.072Z,101269.38
2023-01-30T04:06:30.844Z,101268.28
2023-01-30T04:09:00.724Z,101254.81
2023-01-30T04:11:30.472Z,101267.75
2023-01-30T04:14:00.204Z,101254.81
2023-01-30T04:16:30.827Z,101266.16
2023-01-30T04:19:03.296Z,101261.81
2023-01-30T04:21:33.253Z,101264.50
2023-01-30T04:24:03.028Z,101255.34
2023-01-30T04:26:32.820Z,101265.31
2023-01-30T04:29:02.877Z,101254.53
2023-01-30T04:31:32.644Z,101254.00
2023-01-30T04:34:05.078Z,101254.81
2023-01-30T04:36:34.819Z,101254.81
2023-01-30T04:39:04.585Z,101241.88
2023-01-30T04:41:34.605Z,101241.88
2023-01-30T04:44:04.566Z,101240.78
2023-01-30T04:46:34.476Z,101244.03
2023-01-30T04:49:06.855Z,101244.56
2023-01-30T04:51:36.617Z,101241.88
2023-01-30T04:54:06.803Z,101237.56
2023-01-30T04:56:36.730Z,101229.50
2023-01-30T04:59:06.672Z,101256.97
2023-01-30T05:01:38.643Z,101240.25
2023-01-30T05:04:11.309Z,101244.00
2023-01-30T05:06:41.031Z,101236.44
2023-01-30T05:09:12.824Z,101227.31
2023-01-30T05:11:42.718Z,101235.13
2023-01-30T05:14:12.481Z,101241.31
2023-01-30T05:16:42.518Z,101235.13
2023-01-30T05:19:16.156Z,101234.28
2023-01-30T05:21:45.943Z,101220.28
2023-01-30T05:24:15.777Z,101214.31
2023-01-30T05:26:45.644Z,101213.81
2023-01-30T05:29:15.594Z,101215.97
2023-01-30T05:31:45.569Z,101201.94
2023-01-30T05:34:17.894Z,101215.13
2023-01-30T05:36:47.772Z,101218.63
2023-01-30T05:39:17.858Z,101224.31
2023-01-30T05:41:47.628Z,101226.19
2023-01-30T05:44:17.483Z,101217.56
2023-01-30T05:46:47.312Z,101210.00
2023-01-30T05:49:20.101Z,101216.22
2023-01-30T05:51:51.544Z,101215.13
2023-01-30T05:54:21.377Z,101217.81
2023-01-30T05:56:52.733Z,101213.22
2023-01-30T05:59:22.609Z,101217.81
2023-01-30T06:01:52.580Z,101213.50
2023-01-30T06:04:25.384Z,101234.50
2023-01-30T06:06:55.351Z,101237.50
2023-01-30T06:09:25.054Z,101224.00
2023-01-30T06:11:55.801Z,101234.22
2023-01-30T06:14:25.703Z,101228.03
2023-01-30T06:16:55.705Z,101237.44
2023-01-30T06:19:28.298Z,101237.72
2023-01-30T06:21:58.149Z,101224.50
2023-01-30T06:24:27.919Z,101234.72
2023-01-30T06:26:57.713Z,101229.31
2023-01-30T06:29:27.550Z,101237.41
2023-01-30T06:31:57.284Z,101230.94
2023-01-30T06:34:29.718Z,101232.53
2023-01-30T06:36:59.490Z,101226.88
2023-01-30T06:39:29.358Z,101234.97
2023-01-30T06:41:59.111Z,101233.88
2023-01-30T06:44:28.891Z,101246.53
2023-01-30T06:46:58.745Z,101259.22
2023-01-30T06:49:31.095Z,101263.81
2023-01-30T06:52:00.949Z,101264.84
2023-01-30T06:54:30.692Z,101269.72
2023-01-30T06:57:00.590Z,101267.78
2023-01-30T06:59:30.410Z,101260.47
2023-01-30T07:02:00.333Z,101259.38
2023-01-30T07:04:32.669Z,101253.44
2023-01-30T07:07:02.414Z,101247.50
2023-01-30T07:09:32.231Z,101252.09
2023-01-30T07:12:01.954Z,101238.66
2023-01-30T07:14:31.771Z,101246.97
2023-01-30T07:17:01.634Z,101262.66
2023-01-30T07:19:36.413Z,101260.47
2023-01-30T07:22:06.329Z,101259.94
2023-01-30T07:24:36.141Z,101270.44
2023-01-30T07:27:06.044Z,101275.56
2023-01-30T07:29:35.862Z,101264.25
2023-01-30T07:32:06.168Z,101274.22
2023-01-30T07:34:38.510Z,101291.81
2023-01-30T07:37:08.468Z,101290.16
2023-01-30T07:39:38.191Z,101292.91
2023-01-30T07:42:08.422Z,101297.72
2023-01-30T07:44:38.314Z,101305.81
2023-01-30T07:47:08.484Z,101300.16
2023-01-30T07:49:40.925Z,101289.91
2023-01-30T07:52:10.813Z,101292.31
2023-01-30T07:54:40.673Z,101302.59
2023-01-30T07:57:10.448Z,101315.53
2023-01-30T07:59:40.425Z,101305.81
2023-01-30T08:02:12.100Z,101310.13
2023-01-30T08:04:44.623Z,101306.63
2023-01-30T08:07:14.631Z,101297.44
2023-01-30T08:09:44.820Z,101316.59
2023-01-30T08:12:14.808Z,101319.81
2023-01-30T08:14:44.715Z,101317.63
2023-01-30T08:17:16.335Z,101310.31
2023-01-30T08:19:48.699Z,101307.88
2023-01-30T08:22:18.579Z,101310.84
2023-01-30T08:24:49.004Z,101315.97
2023-01-30T08:27:19.028Z,101310.31
2023-01-30T08:29:48.897Z,101314.34
2023-01-30T08:32:18.605Z,101322.47
2023-01-30T08:34:50.872Z,101331.91
2023-01-30T08:37:20.692Z,101339.16
2023-01-30T08:39:57.771Z,101329.44
2023-01-30T08:42:27.638Z,101347.56
2023-01-30T08:44:59.633Z,101345.94
2023-01-30T08:47:29.429Z,101361.06
2023-01-30T08:50:01.951Z,101340.84
2023-01-30T08:52:31.743Z,101366.19
2023-01-30T08:55:03.006Z,101352.19
2023-01-30T08:57:33.571Z,101350.00
2023-01-30T09:00:03.343Z,101347.59
2023-01-30T09:02:33.171Z,101337.03
2023-01-30T09:05:05.785Z,101329.44
2023-01-30T09:07:36.007Z,101343.22
2023-01-30T09:10:09.067Z,101356.69
2023-01-30T09:12:38.897Z,101353.16
2023-01-30T09:15:12.792Z,101361.25
2023-01-30T09:17:44.801Z,101363.66
2023-01-30T09:20:19.099Z,101366.09
2023-01-30T09:22:49.677Z,101369.28
2023-01-30T09:25:19.931Z,101366.59
2023-01-30T09:27:51.952Z,101377.66
2023-01-30T09:30:22.806Z,101376.34
2023-01-30T09:33:01.511Z,101370.94
2023-01-30T09:35:34.482Z,101371.97
2023-01-30T09:38:05.819Z,101389.84
2023-01-30T09:40:41.680Z,101385.47
2023-01-30T09:43:31.796Z,101379.50
2023-01-30T09:46:10.133Z,101376.78
2023-01-30T09:48:49.713Z,101381.66
2023-01-30T09:51:49.303Z,101391.38
2023-01-30T09:54:24.778Z,101386.25
2023-01-30T09:57:04.384Z,101397.88
2023-01-30T09:59:42.252Z,101392.97
2023-01-30T10:02:27.747Z,101425.66
2023-01-30T10:05:02.010Z,101394.88
2023-01-30T10:07:47.177Z,101409.25
2023-01-30T10:10:26.585Z,101416.75
2023-01-30T10:13:06.987Z,101414.59
2023-01-30T10:15:50.884Z,101427.06
2023-01-30T10:18:41.694Z,101412.41
2023-01-30T10:21:23.206Z,101414.03
2023-01-30T10:24:07.876Z,101411.28
2023-01-30T10:26:37.829Z,101417.78
2023-01-30T10:29:11.043Z,101415.06
2023-01-30T10:31:52.507Z,101413.97
2023-01-30T10:34:26.189Z,101414.88
2023-01-30T10:37:01.441Z,101418.63
2023-01-30T10:39:49.714Z,101414.03
2023-01-30T10:42:30.621Z,101405.09
2023-01-30T10:45:09.723Z,101397.28
2023-01-30T10:48:02.099Z,101400.56
2023-01-30T10:50:53.285Z,101399.44
2023-01-30T10:53:27.246Z,101407.50
2023-01-30T10:56:06.947Z,101412.59
2023-01-30T10:58:45.099Z,101423.91
2023-01-30T11:01:21.345Z,101413.31
2023-01-30T11:03:54.699Z,101428.47
2023-01-30T11:06:27.279Z,101423.59
2023-01-30T11:08:59.529Z,101421.41
2023-01-30T11:11:36.862Z,101418.16
2023-01-30T11:14:08.998Z,101419.28
2023-01-30T11:16:46.959Z,101430.56
2023-01-30T11:19:21.644Z,101400.78
2023-01-30T11:21:54.283Z,101424.09
2023-01-30T11:24:26.683Z,101426.19
2023-01-30T11:27:12.017Z,101421.28
2023-01-30T11:29:42.886Z,101441.81
2023-01-30T11:32:18.013Z,101429.97
2023-01-30T11:35:04.050Z,101432.59
2023-01-30T11:37:36.195Z,101439.59
2023-01-30T11:40:21.698Z,101411.50
2023-01-30T11:42:56.582Z,101418.25
2023-01-30T11:45:30.695Z,101422.78
2023-01-30T11:48:05.001Z,101428.16
2023-01-30T11:50:49.240Z,101417.16
2023-01-30T11:53:33.308Z,101419.06
2023-01-30T11:56:09.100Z,101420.38
2023-01-30T11:58:46.653Z,101432.16
2023-01-30T12:01:17.969Z,101424.84
2023-01-30T12:03:51.862Z,101435.97
2023-01-30T12:06:27.089Z,101431.16
2023-01-30T12:08:57.952Z,101440.56
2023-01-30T12:11:31.107Z,101431.31
2023-01-30T12:14:16.003Z,101427.47
2023-01-30T12:17:01.852Z,101427.97
2023-01-30T12:19:42.844Z,101434.41
2023-01-30T12:22:23.936Z,101445.22
2023-01-30T12:25:01.850Z,101430.41
2023-01-30T12:27:48.482Z,101423.56
2023-01-30T12:30:32.391Z,101435.53
2023-01-30T12:33:04.616Z,101444.47
2023-01-30T12:35:50.036Z,101455.50
2023-01-30T12:38:34.475Z,101443.00
2023-01-30T12:41:15.540Z,101440.25
2023-01-30T12:44:01.577Z,101438.09
2023-01-30T12:46:47.574Z,101440.75
2023-01-30T12:49:40.947Z,101436.97
2023-01-30T12:52:34.036Z,101445.63
2023-01-30T12:55:17.899Z,101446.09
2023-01-30T12:57:56.911Z,101458.00
2023-01-30T13:00:38.602Z,101456.94
2023-01-30T13:03:33.413Z,101462.34
2023-01-30T13:06:13.833Z,101439.13
2023-01-30T13:08:57.221Z,101457.00
2023-01-30T13:11:48.325Z,101462.66
2023-01-30T13:14:28.884Z,101473.72
2023-01-30T13:17:18.451Z,101467.16
2023-01-30T13:19:59.456Z,101466.09
2023-01-30T13:22:37.366Z,101475.00
2023-01-30T13:25:18.559Z,101472.59
2023-01-30T13:27:56.461Z,101478.47
2023-01-30T13:30:28.762Z,101483.38
2023-01-30T13:33:01.584Z,101482.22
2023-01-30T13:35:39.336Z,101484.19
2023-01-30T13:38:11.738Z,101490.56
2023-01-30T13:40:45.290Z,101506.00
2023-01-30T13:43:23.230Z,101498.69
2023-01-30T13:45:54.818Z,101494.59
2023-01-30T13:48:46.277Z,101496.78
2023-01-30T13:51:35.651Z,101519.25
2023-01-30T13:54:15.674Z,101508.59
2023-01-30T13:56:50.775Z,101509.16
2023-01-30T13:59:30.606Z,101516.38
2023-01-30T14:02:22.094Z,101524.97
2023-01-30T14:04:55.881Z,101531.97
2023-01-30T14:07:31.481Z,101532.50
2023-01-30T14:10:20.472Z,101520.31
2023-01-30T14:12:53.140Z,101538.66
2023-01-30T14:15:29.125Z,101532.13
2023-01-30T14:18:06.280Z,101543.25
2023-01-30T14:20:40.669Z,101550.41
2023-01-30T14:23:24.883Z,101548.19
2023-01-30T14:25:56.737Z,101559.91
2023-01-30T14:28:56.158Z,101561.41
2023-01-30T14:31:52.515Z,101573.59
2023-01-30T14:34:46.112Z,101568.94
2023-01-30T14:37:58.704Z,101573.81
2023-01-30T14:41:01.377Z,101568.91
2023-01-30T14:43:53.055Z,101575.75
2023-01-30T14:46:54.398Z,101579.78
2023-01-30T14:49:36.305Z,101584.69
2023-01-30T14:52:06.857Z,101587.88
2023-01-30T14:54:47.530Z,101605.81
2023-01-30T14:57:22.454Z,101613.06
2023-01-30T15:00:14.922Z,101614.75
2023-01-30T15:02:53.146Z,101627.41
2023-01-30T15:05:30.484Z,101631.72
2023-01-30T15:08:06.438Z,101637.09
2023-01-30T15:10:53.288Z,101638.50
2023-01-30T15:13:44.017Z,101646.91
2023-01-30T15:16:36.527Z,101646.34
2023-01-30T15:19:20.613Z,101648.81
2023-01-30T15:22:09.633Z,101656.75
2023-01-30T15:25:17.599Z,101670.28
2023-01-30T15:27:58.984Z,101672.47
2023-01-30T15:30:46.683Z,101670.28
2023-01-30T15:33:31.067Z,101684.66
2023-01-30T15:36:02.401Z,101685.16
2023-01-30T15:38:34.333Z,101680.63
2023-01-30T15:41:06.685Z,101688.72
2023-01-30T15:44:00.521Z,101691.19
2023-01-30T15:46:40.980Z,101694.69
2023-01-30T15:49:44.017Z,101704.97
2023-01-30T15:52:18.563Z,101696.28
2023-01-30T15:54:52.664Z,101700.38
2023-01-30T15:57:29.427Z,101710.41
2023-01-30T16:00:00.875Z,101713.69
2023-01-30T16:02:34.171Z,101723.94
2023-01-30T16:05:17.776Z,101712.06
2023-01-30T16:07:48.867Z,101719.09
2023-01-30T16:10:20.782Z,101726.69
2023-01-30T16:12:54.689Z,101730.72
2023-01-30T16:15:32.893Z,101739.66
2023-01-30T16:18:07.323Z,101746.16
2023-01-30T16:21:00.479Z,101756.47
2023-01-30T16:23:34.643Z,101755.91
2023-01-30T16:26:06.651Z,101765.09
2023-01-30T16:28:36.787Z,101761.88
2023-01-30T16:31:09.865Z,101771.66
2023-01-30T16:33:40.490Z,101769.75
2023-01-30T16:36:33.860Z,101779.25
2023-01-30T16:39:03.805Z,101785.19
2023-01-30T16:41:36.044Z,101796.28
2023-01-30T16:44:21.689Z,101787.34
2023-01-30T16:46:58.666Z,101788.97
2023-01-30T16:49:45.630Z,101805.75
2023-01-30T16:52:25.811Z,101806.25
2023-01-30T16:54:57.480Z,101807.34
2023-01-30T16:57:39.949Z,101809.00
2023-01-30T17:00:22.965Z,101806.28
2023-01-30T17:02:57.094Z,101817.38
2023-01-30T17:05:29.424Z,101818.72
2023-01-30T17:08:01.858Z,101824.16
2023-01-30T17:10:57.585Z,101832.25
2023-01-30T17:13:35.875Z,101836.00
2023-01-30T17:16:25.522Z,101847.38
2023-01-30T17:18:58.325Z,101856.03
2023-01-30T17:21:33.285Z,101860.88
2023-01-30T17:24:08.214Z,101863.03
2023-01-30T17:26:40.930Z,101873.34
2023-01-30T17:29:23.319Z,101868.47
2023-01-30T17:32:02.370Z,101873.31
2023-01-30T17:34:32.153Z,101877.66
2023-01-30T17:37:01.887Z,101889.81
2023-01-30T17:39:34.447Z,101894.13
2023-01-30T17:42:04.354Z,101900.34
2023-01-30T17:44:34.366Z,101900.34
2023-01-30T17:47:04.241Z,101911.69
2023-01-30T17:49:34.010Z,101923.03
2023-01-30T17:52:04.331Z,101930.63
2023-01-30T17:54:36.973Z,101920.31
2023-01-30T17:57:09.854Z,101926.28
2023-01-30T17:59:39.789Z,101934.91
2023-01-30T18:02:12.196Z,101941.38
2023-01-30T18:04:42.537Z,101947.84
2023-01-30T18:07:18.579Z,101942.69
2023-01-30T18:09:50.992Z,101941.88
2023-01-30T18:12:21.102Z,101952.69
2023-01-30T18:14:50.805Z,101949.44
2023-01-30T18:17:21.438Z,101952.69
2023-01-30T18:19:51.167Z,101958.91
2023-01-30T18:22:20.987Z,101959.97
2023-01-30T18:24:53.823Z,101968.31
2023-01-30T18:27:23.552Z,101969.13
2023-01-30T18:29:53.327Z,101972.09
2023-01-30T18:32:23.203Z,101971.56
2023-01-30T18:34:53.080Z,101971.78
2023-01-30T18:37:23.140Z,101976.66
2023-01-30T18:39:55.565Z,101966.38
2023-01-30T18:42:25.586Z,101968.56
2023-01-30T18:44:55.467Z,101962.91
2023-01-30T18:47:25.276Z,101967.22
2023-01-30T18:49:55.802Z,101955.06
2023-01-30T18:52:25.970Z,101958.00
2023-01-30T18:54:58.450Z,101958.53
2023-01-30T18:57:28.345Z,101966.09
2023-01-30T18:59:58.037Z,101965.00
2023-01-30T19:02:27.915Z,101972.25
2023-01-30T19:04:57.799Z,101982.22
2023-01-30T19:07:27.761Z,101984.38
2023-01-30T19:10:00.265Z,101986.81
2023-01-30T19:12:42.598Z,101984.34
2023-01-30T19:15:13.388Z,101987.59
2023-01-30T19:17:43.239Z,101992.69
2023-01-30T19:20:15.142Z,101987.00
2023-01-30T19:22:44.920Z,101986.69
2023-01-30T19:25:17.589Z,101990.19
2023-01-30T19:27:47.512Z,101984.78
2023-01-30T19:30:18.892Z,101997.97
2023-01-30T19:32:48.999Z,101993.06
2023-01-30T19:35:21.583Z,102003.06
2023-01-30T19:37:55.230Z,102008.97
2023-01-30T19:40:27.696Z,102011.09
2023-01-30T19:43:05.704Z,102015.94
2023-01-30T19:45:40.422Z,102028.91
2023-01-30T19:48:11.804Z,102023.44
2023-01-30T19:50:41.855Z,102028.03
2023-01-30T19:53:12.025Z,102031.50
2023-01-30T19:55:44.475Z,102047.69
2023-01-30T19:58:14.484Z,102035.25
2023-01-30T20:00:44.307Z,102053.03
2023-01-30T20:03:16.409Z,102055.47
2023-01-30T20:05:46.704Z,102063.31
2023-01-30T20:08:31.684Z,102069.78
2023-01-30T20:11:07.861Z,102071.34
2023-01-30T20:13:38.096Z,102073.03
2023-01-30T20:16:08.978Z,102087.06
2023-01-30T20:18:40.189Z,102086.03
2023-01-30T20:21:11.972Z,102090.50
2023-01-30T20:23:42.948Z,102091.81
2023-01-30T20:26:20.236Z,102100.13
2023-01-30T20:28:50.543Z,102090.88
2023-01-30T20:31:22.612Z,102092.72
2023-01-30T20:33:55.814Z,102089.41
2023-01-30T20:36:27.443Z,102106.72
2023-01-30T20:39:01.929Z,102111.84
2023-01-30T20:41:37.290Z,102102.31
2023-01-30T20:44:08.819Z,102105.28
2023-01-30T20:46:41.919Z,102107.72
2023-01-30T20:49:15.849Z,102110.88
2023-01-30T20:51:46.305Z,102117.88
2023-01-30T20:54:17.860Z,102111.69
2023-01-30T20:56:53.029Z,102113.56
2023-01-30T20:59:25.048Z,102110.56
2023-01-30T21:01:55.859Z,102113.50
2023-01-30T21:04:27.033Z,102107.00
2023-01-30T21:06:56.986Z,102101.28
2023-01-30T21:09:27.461Z,102104.78
2023-01-30T21:12:00.099Z,102120.41
2023-01-30T21:14:30.077Z,102121.41
2023-01-30T21:17:00.267Z,102114.94
2023-01-30T21:19:30.266Z,102124.34
2023-01-30T21:22:04.535Z,102123.03
2023-01-30T21:24:34.370Z,102130.03
2023-01-30T21:27:07.304Z,102120.41
2023-01-30T21:29:37.227Z,102128.22
2023-01-30T21:32:07.400Z,102132.31
2023-01-30T21:34:37.918Z,102130.44
2023-01-30T21:37:20.110Z,102124.78
2023-01-30T21:40:02.289Z,102134.44
2023-01-30T21:42:47.190Z,102136.00
2023-01-30T21:45:17.749Z,102130.81
2023-01-30T21:47:47.816Z,102132.16
2023-01-30T21:50:18.209Z,102128.41
2023-01-30T21:52:48.007Z,102130.00
2023-01-30T21:55:18.281Z,102130.53
2023-01-30T21:57:51.995Z,102135.38
2023-01-30T22:00:22.444Z,102135.38
2023-01-30T22:02:52.983Z,102134.31
2023-01-30T22:05:23.091Z,102137.75
2023-01-30T22:07:52.983Z,102145.56
2023-01-30T22:10:22.778Z,102148.25
2023-01-30T22:12:55.286Z,102161.72
2023-01-30T22:15:26.240Z,102163.88
2023-01-30T22:17:55.996Z,102160.63
2023-01-30T22:20:25.749Z,102150.31
2023-01-30T22:22:55.556Z,102150.84
2023-01-30T22:25:25.318Z,102152.97
2023-01-30T22:27:58.293Z,102152.63
2023-01-30T22:30:28.025Z,102151.22
2023-01-30T22:32:58.322Z,102149.84
2023-01-30T22:35:28.350Z,102156.53
2023-01-30T22:37:58.109Z,102167.81
2023-01-30T22:40:27.878Z,102172.63
2023-01-30T22:43:03.107Z,102158.50
2023-01-30T22:45:32.849Z,102163.88
2023-01-30T22:48:02.639Z,102162.25
2023-01-30T22:50:32.504Z,102179.22
2023-01-30T22:53:02.435Z,102178.41
2023-01-30T22:55:32.145Z,102169.06
2023-01-30T22:58:04.517Z,102174.66
2023-01-30T23:00:34.453Z,102171.97
2023-01-30T23:03:04.630Z,102179.75
2023-01-30T23:05:34.490Z,102170.75
2023-01-30T23:08:04.643Z,102174.69
2023-01-30T23:10:34.594Z,102177.06
2023-01-30T23:13:15.414Z,102177.06
2023-01-30T23:15:47.115Z,102177.28
2023-01-30T23:18:29.605Z,102176.72
2023-01-30T23:20:59.479Z,102167.19
2023-01-30T23:23:32.285Z,102171.41
2023-01-30T23:26:05.066Z,102167.91
2023-01-30T23:28:38.141Z,102163.56
2023-01-30T23:31:09.563Z,102165.44
2023-01-30T23:33:40.301Z,102163.25
2023-01-30T23:36:12.399Z,102166.44
2023-01-30T23:38:42.844Z,102169.13
2023-01-30T23:41:15.188Z,102177.19
2023-01-30T23:43:49.483Z,102178.25
2023-01-30T23:46:22.119Z,102175.31
2023-01-30T23:48:53.369Z,102176.63
2023-01-30T23:51:24.906Z,102182.00
2023-01-30T23:53:55.601Z,102186.81
2023-01-30T23:56:26.607Z,102181.44
2023-01-30T23:58:59.501Z,102164.72
